createdAt,value
2019-04-26T00:00:07.505Z,89.60
2019-04-26T00:01:15.983Z,89.80
2019-04-26T00:02:53.042Z,90.20
2019-04-26T00:03:55.969Z,90.20
2019-04-26T00:04:59.343Z,90.30
2019-04-26T00:06:02.413Z,89.90
2019-04-26T00:07:05.241Z,89.90
2019-04-26T00:08:09.252Z,90.10
2019-04-26T00:09:41.439Z,90.40
2019-04-26T00:11:18.459Z,90.30
2019-04-26T00:12:38.453Z,90.30
2019-04-26T00:14:11.266Z,90.00
2019-04-26T00:15:33.087Z,89.80
2019-04-26T00:16:48.258Z,89.30
2019-04-26T00:17:54.432Z,88.90
2019-04-26T00:18:57.245Z,88.90
2019-04-26T00:19:59.751Z,89.30
2019-04-26T00:21:02.807Z,90.00
2019-04-26T00:22:05.449Z,89.90
2019-04-26T00:23:10.614Z,89.50
2019-04-26T00:24:15.294Z,90.00
2019-04-26T00:25:18.649Z,90.10
2019-04-26T00:26:23.199Z,90.20
2019-04-26T00:27:25.906Z,90.60
2019-04-26T00:28:28.405Z,90.10
2019-04-26T00:29:32.160Z,90.30
2019-04-26T00:30:34.685Z,89.70
2019-04-26T00:31:37.443Z,90.10
2019-04-26T00:32:40.229Z,90.00
2019-04-26T00:33:43.035Z,89.60
2019-04-26T00:34:45.740Z,88.40
2019-04-26T00:35:48.375Z,88.50
2019-04-26T00:36:50.960Z,89.70
2019-04-26T00:37:53.584Z,90.00
2019-04-26T00:38:56.165Z,89.90
2019-04-26T00:39:58.736Z,89.70
2019-04-26T00:41:01.494Z,90.30
2019-04-26T00:42:04.012Z,90.50
2019-04-26T00:43:06.911Z,90.10
2019-04-26T00:44:09.753Z,89.70
2019-04-26T00:45:15.007Z,90.30
2019-04-26T00:46:18.836Z,90.70
2019-04-26T00:47:23.257Z,90.40
2019-04-26T00:48:28.152Z,90.40
2019-04-26T00:49:43.037Z,90.50
2019-04-26T00:50:37.207Z,90.50
2019-04-26T00:51:40.456Z,91.10
2019-04-26T00:52:44.187Z,91.60
2019-04-26T00:53:47.358Z,91.00
2019-04-26T00:54:50.410Z,90.60
2019-04-26T00:55:53.933Z,90.90
2019-04-26T00:56:57.545Z,91.20
2019-04-26T00:58:00.663Z,90.80
2019-04-26T00:59:05.975Z,90.60
2019-04-26T01:00:11.047Z,90.90
2019-04-26T01:01:16.509Z,91.30
2019-04-26T01:02:31.080Z,91.20
2019-04-26T01:03:33.580Z,90.90
2019-04-26T01:04:36.282Z,91.30
2019-04-26T01:05:39.867Z,91.50
2019-04-26T01:06:44.364Z,91.20
2019-04-26T01:07:49.114Z,91.50
2019-04-26T01:08:51.750Z,91.10
2019-04-26T01:09:54.277Z,91.50
2019-04-26T01:10:56.957Z,91.50
2019-04-26T01:11:59.730Z,91.50
2019-04-26T01:13:02.605Z,91.40
2019-04-26T01:14:05.090Z,91.50
2019-04-26T01:15:07.890Z,91.80
2019-04-26T01:16:10.400Z,91.40
2019-04-26T01:17:12.915Z,90.90
2019-04-26T01:18:16.705Z,90.80
2019-04-26T01:19:22.676Z,91.30
2019-04-26T01:20:28.202Z,90.90
2019-04-26T01:21:38.312Z,91.30
2019-04-26T01:22:45.859Z,91.00
2019-04-26T01:23:50.594Z,91.40
2019-04-26T01:24:55.318Z,91.30
2019-04-26T01:26:21.067Z,91.60
2019-04-26T01:27:27.655Z,91.50
2019-04-26T01:28:39.443Z,91.60
2019-04-26T01:29:44.477Z,91.60
2019-04-26T01:30:47.412Z,91.60
2019-04-26T01:32:06.124Z,91.80
2019-04-26T01:33:09.383Z,91.50
2019-04-26T01:34:12.224Z,91.60
2019-04-26T01:35:15.320Z,91.40
2019-04-26T01:36:19.134Z,91.40
2019-04-26T01:37:22.813Z,91.90
2019-04-26T01:38:25.852Z,91.80
2019-04-26T01:39:29.214Z,91.60
2019-04-26T01:40:33.160Z,91.90
2019-04-26T01:41:43.981Z,91.90
2019-04-26T01:42:54.606Z,92.00
2019-04-26T01:44:09.085Z,91.70
2019-04-26T01:45:27.957Z,92.40
2019-04-26T01:46:38.127Z,92.40
2019-04-26T01:47:41.630Z,92.30
2019-04-26T01:48:52.997Z,92.50
2019-04-26T01:49:56.144Z,92.40
2019-04-26T01:50:59.367Z,92.10
2019-04-26T01:52:07.842Z,92.30
2019-04-26T01:53:10.658Z,92.00
2019-04-26T01:54:19.175Z,92.20
2019-04-26T01:55:23.471Z,92.40
2019-04-26T01:56:31.367Z,92.40
2019-04-26T01:57:34.904Z,92.30
2019-04-26T01:58:37.751Z,91.90
2019-04-26T01:59:45.956Z,92.20
2019-04-26T02:00:57.263Z,92.30
2019-04-26T02:02:16.801Z,92.30
2019-04-26T02:03:26.484Z,91.90
2019-04-26T02:04:32.025Z,92.10
2019-04-26T02:05:35.175Z,91.90
2019-04-26T02:06:38.169Z,92.10
2019-04-26T02:07:41.268Z,92.30
2019-04-26T02:08:43.809Z,92.40
2019-04-26T02:09:46.455Z,92.80
2019-04-26T02:10:49.718Z,93.00
2019-04-26T02:11:52.411Z,92.90
2019-04-26T02:12:57.210Z,93.10
2019-04-26T02:13:59.961Z,93.20
2019-04-26T02:15:02.765Z,92.90
2019-04-26T02:16:05.473Z,92.80
2019-04-26T02:17:08.691Z,92.90
2019-04-26T02:18:11.219Z,92.90
2019-04-26T02:19:13.975Z,92.90
2019-04-26T02:21:00.032Z,92.60
2019-04-26T02:22:16.343Z,92.60
2019-04-26T02:23:26.277Z,92.80
2019-04-26T02:24:41.344Z,92.60
2019-04-26T02:25:43.974Z,92.70
2019-04-26T02:26:48.398Z,92.80
2019-04-26T02:27:51.126Z,92.70
2019-04-26T02:28:53.669Z,93.10
2019-04-26T02:29:57.352Z,93.30
2019-04-26T02:31:01.021Z,93.50
2019-04-26T02:32:05.496Z,92.90
2019-04-26T02:33:08.023Z,93.00
2019-04-26T02:34:11.296Z,93.40
2019-04-26T02:35:14.131Z,93.40
2019-04-26T02:36:17.425Z,93.90
2019-04-26T02:37:20.204Z,93.60
2019-04-26T02:38:22.731Z,93.80
2019-04-26T02:39:31.405Z,93.30
2019-04-26T02:40:35.504Z,93.20
2019-04-26T02:41:39.346Z,92.60
2019-04-26T02:42:44.153Z,92.60
2019-04-26T02:43:50.449Z,92.60
2019-04-26T02:45:21.611Z,92.80
2019-04-26T02:46:36.518Z,92.80
2019-04-26T02:48:11.823Z,93.00
2019-04-26T02:49:27.497Z,93.10
2019-04-26T02:50:36.972Z,93.00
2019-04-26T02:51:46.271Z,93.10
2019-04-26T02:52:55.986Z,93.20
2019-04-26T02:54:13.298Z,93.30
2019-04-26T02:55:42.445Z,93.90
2019-04-26T02:56:46.956Z,93.70
2019-04-26T02:57:53.044Z,94.20
2019-04-26T02:59:30.160Z,93.90
2019-04-26T03:00:35.498Z,94.00
2019-04-26T03:01:40.135Z,93.60
2019-04-26T03:02:47.106Z,93.70
2019-04-26T03:03:53.444Z,93.60
2019-04-26T03:05:01.607Z,93.40
2019-04-26T03:06:06.232Z,93.90
2019-04-26T03:07:30.057Z,93.20
2019-04-26T03:08:37.766Z,93.40
2019-04-26T03:09:43.374Z,93.10
2019-04-26T03:10:50.896Z,93.50
2019-04-26T03:11:57.491Z,94.10
2019-04-26T03:13:03.191Z,94.10
2019-04-26T03:14:26.637Z,94.20
2019-04-26T03:15:55.129Z,94.30
2019-04-26T03:17:23.741Z,94.40
2019-04-26T03:18:41.515Z,94.50
2019-04-26T03:19:54.658Z,94.30
2019-04-26T03:21:02.289Z,94.30
2019-04-26T03:22:21.984Z,94.40
2019-04-26T03:23:45.910Z,94.30
2019-04-26T03:24:44.534Z,93.90
2019-04-26T03:25:58.791Z,93.90
2019-04-26T03:27:15.617Z,93.70
2019-04-26T03:28:39.261Z,93.70
2019-04-26T03:30:05.008Z,93.80
2019-04-26T03:31:21.549Z,93.80
2019-04-26T03:32:54.357Z,93.90
2019-04-26T03:34:21.140Z,94.10
2019-04-26T03:35:55.345Z,93.70
2019-04-26T03:37:20.648Z,93.60
2019-04-26T03:38:43.618Z,93.70
2019-04-26T03:39:59.346Z,93.60
2019-04-26T03:41:18.792Z,94.10
2019-04-26T03:43:06.457Z,94.00
2019-04-26T03:44:19.817Z,93.70
2019-04-26T03:45:59.772Z,93.90
2019-04-26T03:47:06.564Z,94.00
2019-04-26T03:48:19.229Z,94.20
2019-04-26T03:49:45.870Z,94.40
2019-04-26T03:50:59.522Z,94.20
2019-04-26T03:52:16.905Z,94.00
2019-04-26T03:53:47.272Z,93.80
2019-04-26T03:54:54.614Z,94.00
2019-04-26T03:57:13.587Z,93.90
2019-04-26T03:58:20.724Z,93.80
2019-04-26T03:59:44.229Z,94.30
2019-04-26T04:00:52.990Z,94.40
2019-04-26T04:02:12.676Z,94.20
2019-04-26T04:03:50.464Z,94.00
2019-04-26T04:05:19.064Z,93.70
2019-04-26T04:06:27.842Z,93.90
2019-04-26T04:07:39.472Z,94.20
2019-04-26T04:08:48.228Z,94.20
2019-04-26T04:09:58.334Z,94.40
2019-04-26T04:11:07.330Z,94.20
2019-04-26T04:12:23.451Z,94.60
2019-04-26T04:13:40.768Z,94.50
2019-04-26T04:14:58.162Z,94.70
2019-04-26T04:16:01.527Z,95.10
2019-04-26T04:20:25.216Z,95.60
2019-04-26T04:21:48.267Z,95.20
2019-04-26T04:23:05.683Z,95.10
2019-04-26T04:24:22.935Z,95.40
2019-04-26T04:25:32.261Z,95.40
2019-04-26T04:26:56.772Z,95.10
2019-04-26T04:28:06.358Z,95.00
2019-04-26T04:29:42.184Z,94.80
2019-04-26T04:30:58.663Z,94.00
2019-04-26T04:32:03.045Z,94.50
2019-04-26T04:33:37.366Z,94.40
2019-04-26T04:34:45.515Z,94.20
2019-04-26T04:35:53.801Z,94.10
2019-04-26T04:37:00.627Z,94.50
2019-04-26T04:38:12.887Z,94.50
2019-04-26T04:39:25.435Z,94.60
2019-04-26T04:40:44.858Z,94.90
2019-04-26T04:42:27.605Z,94.90
2019-04-26T04:43:41.917Z,95.40
2019-04-26T04:45:08.665Z,95.30
2019-04-26T04:46:58.701Z,95.10
2019-04-26T04:48:22.515Z,94.70
2019-04-26T04:50:01.468Z,94.30
2019-04-26T04:51:37.402Z,94.20
2019-04-26T04:53:10.922Z,94.70
2019-04-26T04:54:19.800Z,94.80
2019-04-26T04:55:35.261Z,94.50
2019-04-26T04:57:05.349Z,94.70
2019-04-26T04:58:16.309Z,94.60
2019-04-26T04:59:26.477Z,94.40
2019-04-26T05:01:12.110Z,94.30
2019-04-26T05:02:50.672Z,94.20
2019-04-26T05:04:02.495Z,93.90
2019-04-26T05:05:43.627Z,94.40
2019-04-26T05:07:17.328Z,94.00
2019-04-26T05:08:52.610Z,93.90
2019-04-26T05:10:23.732Z,94.20
2019-04-26T05:11:30.175Z,93.40
2019-04-26T05:12:46.147Z,94.10
2019-04-26T05:14:05.215Z,93.90
2019-04-26T05:15:46.407Z,94.00
2019-04-26T05:17:25.156Z,94.20
2019-04-26T05:19:24.938Z,93.90
2019-04-26T05:20:44.431Z,94.00
2019-04-26T05:22:01.635Z,93.80
2019-04-26T05:23:48.928Z,93.70
2019-04-26T05:25:40.359Z,93.80
2019-04-26T05:27:39.786Z,93.60
2019-04-26T05:29:10.656Z,93.90
2019-04-26T05:30:39.922Z,93.70
2019-04-26T05:31:52.749Z,94.30
2019-04-26T05:33:37.672Z,94.10
2019-04-26T05:34:52.848Z,94.00
2019-04-26T05:36:12.166Z,94.60
2019-04-26T05:37:43.062Z,94.40
2019-04-26T05:38:53.598Z,94.30
2019-04-26T05:40:04.825Z,93.90
2019-04-26T05:41:35.663Z,94.20
2019-04-26T05:43:23.600Z,94.10
2019-04-26T05:45:13.785Z,94.10
2019-04-26T05:47:29.645Z,94.50
2019-04-26T05:49:28.778Z,94.80
2019-04-26T05:51:26.370Z,95.10
2019-04-26T05:52:58.002Z,94.50
2019-04-26T05:54:58.202Z,95.10
2019-04-26T05:56:33.598Z,95.30
2019-04-26T05:58:04.131Z,95.40
2019-04-26T05:59:14.717Z,95.30
2019-04-26T06:00:43.192Z,94.80
2019-04-26T06:02:47.743Z,95.00
2019-04-26T06:04:31.921Z,95.40
2019-04-26T06:06:06.087Z,95.60
2019-04-26T06:07:31.631Z,95.40
2019-04-26T06:09:25.232Z,95.50
2019-04-26T06:12:18.992Z,95.20
2019-04-26T06:14:14.263Z,95.50
2019-04-26T06:15:40.300Z,95.40
2019-04-26T06:17:43.071Z,95.40
2019-04-26T06:19:01.743Z,95.60
2019-04-26T06:20:28.858Z,95.70
2019-04-26T06:21:52.198Z,95.70
2019-04-26T06:23:04.218Z,95.90
2019-04-26T06:24:31.806Z,96.20
2019-04-26T06:26:02.883Z,96.50
2019-04-26T06:27:50.738Z,95.90
2019-04-26T06:29:06.716Z,95.60
2019-04-26T06:30:18.230Z,95.90
2019-04-26T06:31:29.717Z,95.90
2019-04-26T06:33:03.994Z,95.90
2019-04-26T06:34:09.026Z,95.50
2019-04-26T06:35:15.162Z,95.00
2019-04-26T06:36:29.769Z,95.10
2019-04-26T06:37:46.760Z,95.30
2019-04-26T06:39:16.787Z,95.50
2019-04-26T06:40:41.662Z,95.60
2019-04-26T06:42:31.911Z,95.40
2019-04-26T06:43:43.744Z,96.00
2019-04-26T06:45:02.916Z,95.20
2019-04-26T06:47:21.754Z,95.40
2019-04-26T06:49:08.819Z,96.30
2019-04-26T06:50:31.750Z,95.30
2019-04-26T06:51:41.169Z,95.90
2019-04-26T06:52:56.756Z,95.70
2019-04-26T06:54:24.206Z,95.70
2019-04-26T06:55:48.325Z,95.50
2019-04-26T06:57:30.040Z,95.60
2019-04-26T06:58:52.850Z,95.40
2019-04-26T07:00:06.659Z,95.10
2019-04-26T07:01:32.897Z,95.70
2019-04-26T07:02:49.792Z,95.10
2019-04-26T07:04:28.751Z,95.00
2019-04-26T07:05:34.982Z,95.10
2019-04-26T07:07:02.735Z,95.30
2019-04-26T07:08:36.785Z,95.50
2019-04-26T07:10:01.873Z,95.60
2019-04-26T07:12:05.196Z,94.90
2019-04-26T07:13:48.950Z,95.20
2019-04-26T07:15:51.472Z,95.60
2019-04-26T07:17:02.919Z,94.80
2019-04-26T07:18:55.914Z,95.20
2019-04-26T07:20:21.794Z,95.20
2019-04-26T07:22:34.857Z,94.70
2019-04-26T07:24:32.635Z,94.50
2019-04-26T07:26:08.189Z,95.00
2019-04-26T07:27:30.993Z,94.50
2019-04-26T07:29:01.517Z,95.30
2019-04-26T07:30:16.380Z,94.60
2019-04-26T07:31:51.006Z,94.60
2019-04-26T07:33:47.970Z,94.60
2019-04-26T07:35:20.836Z,94.90
2019-04-26T07:36:54.827Z,94.50
2019-04-26T07:39:09.083Z,94.20
2019-04-26T07:40:57.358Z,94.80
2019-04-26T07:42:57.826Z,95.20
2019-04-26T07:45:02.647Z,94.50
2019-04-26T07:46:56.267Z,94.50
2019-04-26T07:48:24.381Z,95.10
2019-04-26T07:50:11.513Z,95.70
2019-04-26T07:51:58.517Z,96.10
2019-04-26T07:53:40.722Z,96.50
2019-04-26T07:55:12.871Z,97.50
2019-04-26T07:56:40.596Z,97.90
2019-04-26T07:58:19.586Z,98.60
2019-04-26T08:00:08.715Z,98.90
2019-04-26T08:01:38.501Z,98.90
2019-04-26T08:03:04.161Z,99.00
2019-04-26T08:04:16.177Z,99.30
2019-04-26T08:05:33.887Z,99.80
2019-04-26T08:06:45.867Z,99.90
2019-04-26T08:07:55.904Z,99.90
2019-04-26T08:09:26.017Z,99.90
2019-04-26T08:10:21.022Z,99.90
2019-04-26T08:11:33.132Z,99.90
2019-04-26T08:12:39.033Z,99.90
2019-04-26T08:14:12.899Z,99.90
2019-04-26T08:15:53.525Z,99.90
2019-04-26T08:17:49.991Z,99.90
2019-04-26T08:19:00.133Z,99.90
2019-04-26T08:20:35.091Z,99.90
2019-04-26T08:21:42.812Z,99.90
2019-04-26T08:22:52.264Z,99.90
2019-04-26T08:24:09.955Z,99.90
2019-04-26T08:25:14.559Z,99.90
2019-04-26T08:26:20.885Z,99.90
2019-04-26T08:27:27.158Z,99.90
2019-04-26T08:28:33.744Z,99.90
2019-04-26T08:29:39.855Z,99.90
2019-04-26T08:30:46.246Z,99.90
2019-04-26T08:31:53.359Z,99.90
2019-04-26T08:33:02.124Z,99.90
2019-04-26T08:34:08.670Z,99.90
2019-04-26T08:35:27.184Z,99.90
2019-04-26T08:36:33.567Z,99.90
2019-04-26T08:37:50.565Z,99.90
2019-04-26T08:38:54.197Z,99.90
2019-04-26T08:39:57.911Z,99.90
2019-04-26T08:41:04.799Z,99.90
2019-04-26T08:42:09.042Z,99.90
2019-04-26T08:43:30.863Z,99.90
2019-04-26T08:44:59.438Z,99.90
2019-04-26T08:46:20.688Z,99.90
2019-04-26T08:47:51.183Z,99.90
2019-04-26T08:49:06.450Z,99.90
2019-04-26T08:50:17.616Z,99.90
2019-04-26T08:51:22.054Z,99.90
2019-04-26T08:52:28.625Z,99.90
2019-04-26T08:53:33.168Z,99.90
2019-04-26T08:54:42.411Z,99.90
2019-04-26T08:55:47.292Z,99.90
2019-04-26T08:57:05.309Z,99.90
2019-04-26T08:58:11.587Z,99.90
2019-04-26T08:59:39.510Z,99.90
2019-04-26T09:00:55.400Z,99.90
2019-04-26T09:02:11.896Z,99.90
2019-04-26T09:03:27.023Z,99.90
2019-04-26T09:04:40.755Z,99.90
2019-04-26T09:05:55.380Z,99.90
2019-04-26T09:07:05.168Z,99.90
2019-04-26T09:08:11.422Z,99.90
2019-04-26T09:09:19.882Z,99.90
2019-04-26T09:10:25.361Z,99.90
2019-04-26T09:11:33.508Z,99.90
2019-04-26T09:12:37.392Z,99.90
2019-04-26T09:13:43.794Z,99.90
2019-04-26T09:14:51.392Z,99.90
2019-04-26T09:16:06.456Z,99.90
2019-04-26T09:17:09.176Z,99.90
2019-04-26T09:18:11.913Z,99.90
2019-04-26T09:19:14.712Z,99.90
2019-04-26T09:20:28.046Z,99.90
2019-04-26T09:21:32.532Z,99.90
2019-04-26T09:22:50.510Z,99.90
2019-04-26T09:24:30.600Z,99.90
2019-04-26T09:25:39.280Z,99.90
2019-04-26T09:26:46.646Z,99.90
2019-04-26T09:27:59.044Z,99.90
2019-04-26T09:29:31.772Z,99.90
2019-04-26T09:32:58.306Z,99.90
2019-04-26T09:34:06.505Z,99.90
2019-04-26T09:35:11.382Z,99.90
2019-04-26T09:36:16.814Z,99.90
2019-04-26T09:37:19.801Z,99.90
2019-04-26T09:38:22.379Z,99.90
2019-04-26T09:39:25.219Z,99.90
2019-04-26T09:40:27.860Z,99.90
2019-04-26T09:41:32.132Z,99.90
2019-04-26T09:42:54.325Z,99.90
2019-04-26T09:44:25.044Z,99.90
2019-04-26T09:45:40.545Z,99.90
2019-04-26T09:47:06.047Z,99.90
2019-04-26T09:48:22.281Z,99.90
2019-04-26T09:49:32.067Z,99.90
2019-04-26T09:50:38.427Z,99.90
2019-04-26T09:51:41.494Z,99.90
2019-04-26T09:52:48.079Z,99.90
2019-04-26T09:53:50.582Z,99.90
2019-04-26T09:54:53.145Z,99.90
2019-04-26T09:55:55.752Z,99.90
2019-04-26T09:56:58.504Z,99.90
2019-04-26T09:58:01.335Z,99.90
2019-04-26T09:59:05.656Z,99.90
2019-04-26T10:00:14.236Z,99.90
2019-04-26T10:01:15.620Z,99.90
2019-04-26T10:02:18.376Z,99.90
2019-04-26T10:03:20.923Z,99.90
2019-04-26T10:04:23.680Z,99.90
2019-04-26T10:05:26.777Z,99.90
2019-04-26T10:06:30.767Z,99.90
2019-04-26T10:07:37.542Z,99.90
2019-04-26T10:08:38.293Z,99.90
2019-04-26T10:09:41.123Z,99.90
2019-04-26T10:10:43.993Z,99.90
2019-04-26T10:11:51.796Z,99.90
2019-04-26T10:13:04.336Z,99.90
2019-04-26T10:14:10.341Z,99.90
2019-04-26T10:15:22.499Z,99.90
2019-04-26T10:16:42.103Z,99.90
2019-04-26T10:17:42.525Z,99.90
2019-04-26T10:18:48.523Z,99.90
2019-04-26T10:19:52.797Z,99.90
2019-04-26T10:20:55.367Z,99.90
2019-04-26T10:21:58.007Z,99.90
2019-04-26T10:23:02.121Z,99.90
2019-04-26T10:24:04.917Z,99.90
2019-04-26T10:25:16.750Z,99.90
2019-04-26T10:26:14.500Z,99.90
2019-04-26T10:27:17.156Z,99.90
2019-04-26T10:28:20.091Z,99.90
2019-04-26T10:29:25.762Z,99.90
2019-04-26T10:30:27.175Z,99.90
2019-04-26T10:31:29.692Z,99.90
2019-04-26T10:32:32.326Z,99.90
2019-04-26T10:33:36.583Z,99.90
2019-04-26T10:34:42.740Z,99.90
2019-04-26T10:35:45.529Z,99.90
2019-04-26T10:36:48.398Z,99.90
2019-04-26T10:37:52.606Z,99.90
2019-04-26T10:38:58.473Z,99.90
2019-04-26T10:40:00.238Z,99.90
2019-04-26T10:41:05.594Z,99.90
2019-04-26T10:42:08.231Z,99.90
2019-04-26T10:43:11.266Z,99.90
2019-04-26T10:44:14.983Z,99.90
2019-04-26T10:45:18.301Z,99.90
2019-04-26T10:46:24.406Z,99.90
2019-04-26T10:47:25.464Z,99.90
2019-04-26T10:48:28.009Z,99.90
2019-04-26T10:49:45.049Z,99.90
2019-04-26T10:50:47.770Z,99.90
2019-04-26T10:51:50.498Z,99.90
2019-04-26T10:53:11.530Z,99.90
2019-04-26T10:54:18.158Z,99.90
2019-04-26T10:55:38.936Z,99.90
2019-04-26T10:56:48.761Z,99.90
2019-04-26T10:57:53.309Z,99.90
2019-04-26T10:59:35.079Z,99.90
2019-04-26T11:00:39.395Z,99.90
2019-04-26T11:01:42.124Z,99.90
2019-04-26T11:02:45.115Z,99.90
2019-04-26T11:04:13.753Z,99.90
2019-04-26T11:05:31.828Z,99.90
2019-04-26T11:06:44.087Z,99.90
2019-04-26T11:08:26.225Z,99.90
2019-04-26T11:09:57.551Z,99.90
2019-04-26T11:11:09.555Z,99.90
2019-04-26T11:13:59.525Z,99.90
2019-04-26T11:15:09.116Z,99.90
2019-04-26T11:16:19.161Z,99.90
2019-04-26T11:17:40.529Z,99.90
2019-04-26T11:18:48.369Z,99.90
2019-04-26T11:19:59.339Z,99.90
2019-04-26T11:21:10.484Z,99.90
2019-04-26T11:22:28.992Z,99.90
2019-04-26T11:23:28.804Z,99.90
2019-04-26T11:24:31.720Z,99.90
2019-04-26T11:25:37.194Z,99.90
2019-04-26T11:26:39.814Z,99.90
2019-04-26T11:27:44.344Z,99.90
2019-04-26T11:28:51.450Z,99.90
2019-04-26T11:29:53.761Z,99.90
2019-04-26T11:30:57.555Z,99.90
2019-04-26T11:32:02.656Z,99.90
2019-04-26T11:33:07.302Z,99.90
2019-04-26T11:34:09.894Z,99.90
2019-04-26T11:35:12.490Z,99.90
2019-04-26T11:36:15.629Z,99.90
2019-04-26T11:37:19.375Z,99.90
2019-04-26T11:38:22.320Z,99.90
2019-04-26T11:39:28.018Z,99.90
2019-04-26T11:40:31.026Z,99.90
2019-04-26T11:41:33.971Z,99.90
2019-04-26T11:42:36.981Z,99.90
2019-04-26T11:43:39.600Z,99.90
2019-04-26T11:44:44.477Z,99.90
2019-04-26T11:45:49.405Z,99.90
2019-04-26T11:46:51.283Z,99.90
2019-04-26T11:47:56.155Z,99.90
2019-04-26T11:48:59.442Z,99.90
2019-04-26T11:50:03.947Z,99.90
2019-04-26T11:51:07.033Z,99.90
2019-04-26T11:52:09.581Z,99.90
2019-04-26T11:53:12.212Z,99.90
2019-04-26T11:54:17.115Z,99.90
2019-04-26T11:55:19.916Z,99.90
2019-04-26T11:56:22.789Z,99.90
2019-04-26T11:57:25.520Z,99.90
2019-04-26T11:58:28.056Z,99.90
2019-04-26T11:59:31.859Z,99.90
2019-04-26T12:00:43.504Z,99.90
2019-04-26T12:01:46.650Z,99.90
2019-04-26T12:02:50.648Z,99.90
2019-04-26T12:04:11.731Z,99.90
2019-04-26T12:05:26.139Z,99.90
2019-04-26T12:06:44.139Z,99.90
2019-04-26T12:07:51.091Z,99.90
2019-04-26T12:09:11.940Z,99.90
2019-04-26T12:10:14.569Z,99.90
2019-04-26T12:11:18.557Z,99.90
2019-04-26T12:12:21.945Z,99.90
2019-04-26T12:13:25.269Z,99.90
2019-04-26T12:14:29.529Z,99.90
2019-04-26T12:15:33.666Z,99.90
2019-04-26T12:16:47.140Z,99.90
2019-04-26T12:17:40.868Z,99.90
2019-04-26T12:18:44.231Z,99.90
2019-04-26T12:19:52.149Z,99.90
2019-04-26T12:20:52.772Z,99.90
2019-04-26T12:21:55.411Z,99.90
2019-04-26T12:22:58.122Z,99.90
2019-04-26T12:24:00.913Z,99.90
2019-04-26T12:25:07.125Z,99.90
2019-04-26T12:26:08.180Z,99.90
2019-04-26T12:27:10.963Z,99.90
2019-04-26T12:28:13.804Z,99.90
2019-04-26T12:29:16.521Z,99.90
2019-04-26T12:30:24.927Z,99.90
2019-04-26T12:31:26.092Z,99.90
2019-04-26T12:32:29.022Z,99.90
2019-04-26T12:33:31.649Z,99.90
2019-04-26T12:34:34.294Z,99.90
2019-04-26T12:35:38.988Z,99.90
2019-04-26T12:36:48.763Z,99.90
2019-04-26T12:38:00.159Z,99.90
2019-04-26T12:39:08.389Z,99.90
2019-04-26T12:40:12.380Z,99.90
2019-04-26T12:41:17.256Z,99.90
2019-04-26T12:42:20.189Z,99.90
2019-04-26T12:43:24.599Z,99.90
2019-04-26T12:44:36.432Z,99.90
2019-04-26T12:45:55.406Z,99.90
2019-04-26T12:47:20.907Z,99.90
2019-04-26T12:48:23.892Z,99.90
2019-04-26T12:49:26.438Z,99.90
2019-04-26T12:50:29.576Z,99.90
2019-04-26T12:51:33.673Z,99.90
2019-04-26T12:52:37.594Z,99.90
2019-04-26T12:53:40.785Z,99.90
2019-04-26T12:54:44.747Z,99.90
2019-04-26T12:55:49.152Z,99.90
2019-04-26T12:56:51.934Z,99.90
2019-04-26T12:57:54.544Z,99.90
2019-04-26T12:58:57.272Z,99.90
2019-04-26T13:00:03.663Z,99.90
2019-04-26T13:01:12.267Z,99.90
2019-04-26T13:02:16.643Z,99.90
2019-04-26T13:03:20.541Z,99.90
2019-04-26T13:04:21.874Z,99.90
2019-04-26T13:05:24.520Z,99.90
2019-04-26T13:06:27.784Z,99.90
2019-04-26T13:07:30.402Z,99.90
2019-04-26T13:08:33.103Z,99.90
2019-04-26T13:09:37.729Z,99.90
2019-04-26T13:11:15.019Z,99.90
2019-04-26T13:12:30.819Z,99.90
2019-04-26T13:13:58.957Z,99.90
2019-04-26T13:16:14.760Z,99.90
2019-04-26T13:17:20.188Z,99.90
2019-04-26T13:18:24.424Z,99.90
2019-04-26T13:19:27.233Z,99.90
2019-04-26T13:20:30.231Z,99.90
2019-04-26T13:21:36.809Z,99.90
2019-04-26T13:22:45.904Z,99.90
2019-04-26T13:23:44.399Z,99.90
2019-04-26T13:24:46.994Z,99.90
2019-04-26T13:25:49.492Z,99.90
2019-04-26T13:26:52.224Z,99.90
2019-04-26T13:27:54.875Z,99.90
2019-04-26T13:28:58.851Z,99.90
2019-04-26T13:30:02.810Z,99.90
2019-04-26T13:31:06.338Z,99.90
2019-04-26T13:32:10.169Z,99.90
2019-04-26T13:33:12.814Z,99.90
2019-04-26T13:34:16.637Z,99.90
2019-04-26T13:35:21.002Z,99.90
2019-04-26T13:36:25.232Z,99.90
2019-04-26T13:37:28.185Z,99.90
2019-04-26T13:38:32.644Z,99.90
2019-04-26T13:39:35.515Z,99.90
2019-04-26T13:40:40.200Z,99.90
2019-04-26T13:41:43.602Z,99.90
2019-04-26T13:42:47.473Z,99.90
2019-04-26T13:43:52.338Z,99.90
2019-04-26T13:45:08.712Z,99.90
2019-04-26T13:46:34.145Z,99.90
2019-04-26T13:47:56.259Z,99.90
2019-04-26T13:49:27.182Z,99.90
2019-04-26T13:50:49.282Z,99.90
2019-04-26T13:51:52.381Z,99.90
2019-04-26T13:52:56.322Z,99.90
2019-04-26T13:53:59.293Z,99.90
2019-04-26T13:55:01.811Z,99.90
2019-04-26T13:56:05.484Z,99.90
2019-04-26T13:57:10.036Z,99.90
2019-04-26T13:58:15.379Z,99.90
2019-04-26T13:59:17.176Z,99.90
2019-04-26T14:00:26.527Z,99.90
2019-04-26T14:01:29.038Z,99.90
2019-04-26T14:02:31.676Z,99.90
2019-04-26T14:03:34.203Z,99.90
2019-04-26T14:04:49.281Z,99.90
2019-04-26T14:06:03.785Z,99.90
2019-04-26T14:07:14.130Z,99.90
2019-04-26T14:08:17.700Z,99.90
2019-04-26T14:09:20.397Z,99.90
2019-04-26T14:10:23.512Z,99.90
2019-04-26T14:11:29.380Z,99.90
2019-04-26T14:12:30.527Z,99.90
2019-04-26T14:13:33.128Z,99.90
2019-04-26T14:14:35.944Z,99.90
2019-04-26T14:15:39.376Z,99.90
2019-04-26T14:16:43.908Z,99.90
2019-04-26T14:17:47.510Z,99.90
2019-04-26T14:18:50.334Z,99.90
2019-04-26T14:19:52.885Z,99.90
2019-04-26T14:20:58.907Z,99.90
2019-04-26T14:22:03.271Z,99.90
2019-04-26T14:23:28.844Z,99.90
2019-04-26T14:24:39.804Z,99.90
2019-04-26T14:26:05.144Z,99.90
2019-04-26T14:27:35.934Z,99.90
2019-04-26T14:28:38.713Z,99.90
2019-04-26T14:29:41.374Z,99.90
2019-04-26T14:30:43.936Z,99.90
2019-04-26T14:31:47.302Z,99.90
2019-04-26T14:32:53.270Z,99.90
2019-04-26T14:33:55.839Z,99.90
2019-04-26T14:35:01.347Z,99.90
2019-04-26T14:36:17.040Z,99.90
2019-04-26T14:37:11.050Z,99.90
2019-04-26T14:38:27.085Z,99.90
2019-04-26T14:39:21.075Z,99.90
2019-04-26T14:40:23.803Z,99.90
2019-04-26T14:41:26.827Z,99.90
2019-04-26T14:42:34.308Z,99.90
2019-04-26T14:43:40.604Z,99.90
2019-04-26T14:44:48.964Z,99.90
2019-04-26T14:45:55.407Z,99.90
2019-04-26T14:46:53.178Z,99.90
2019-04-26T14:47:53.923Z,99.90
2019-04-26T14:49:01.973Z,99.90
2019-04-26T14:50:13.371Z,99.90
2019-04-26T14:51:08.057Z,99.90
2019-04-26T14:52:10.057Z,99.90
2019-04-26T14:53:12.594Z,99.90
2019-04-26T14:54:15.526Z,99.90
2019-04-26T14:55:21.161Z,99.90
2019-04-26T14:56:24.741Z,99.90
2019-04-26T14:57:31.462Z,99.90
2019-04-26T14:58:33.735Z,99.90
2019-04-26T14:59:49.753Z,99.90
2019-04-26T15:00:58.491Z,99.90
2019-04-26T15:02:19.463Z,99.90
2019-04-26T15:03:30.736Z,99.90
2019-04-26T15:04:48.697Z,99.90
2019-04-26T15:06:20.380Z,99.90
2019-04-26T15:07:24.240Z,99.90
2019-04-26T15:08:26.794Z,99.90
2019-04-26T15:09:33.087Z,99.90
2019-04-26T15:10:44.003Z,99.90
2019-04-26T15:11:52.853Z,99.90
2019-04-26T15:12:47.000Z,99.90
2019-04-26T15:13:49.537Z,99.90
2019-04-26T15:14:53.808Z,99.90
2019-04-26T15:15:56.484Z,99.90
2019-04-26T15:16:58.997Z,99.90
2019-04-26T15:18:02.972Z,99.90
2019-04-26T15:19:06.243Z,99.90
2019-04-26T15:20:10.504Z,99.90
2019-04-26T15:21:13.053Z,99.90
2019-04-26T15:22:15.687Z,99.90
2019-04-26T15:23:19.420Z,99.90
2019-04-26T15:24:25.798Z,99.90
2019-04-26T15:25:27.592Z,99.90
2019-04-26T15:26:30.291Z,99.90
2019-04-26T15:27:36.294Z,99.90
2019-04-26T15:28:37.842Z,99.90
2019-04-26T15:29:41.979Z,99.90
2019-04-26T15:30:46.782Z,99.90
2019-04-26T15:31:53.798Z,99.90
2019-04-26T15:32:54.460Z,99.90
2019-04-26T15:33:57.191Z,99.90
2019-04-26T15:35:00.046Z,99.90
2019-04-26T15:36:06.491Z,99.90
2019-04-26T15:37:07.321Z,99.90
2019-04-26T15:38:10.133Z,99.90
2019-04-26T15:39:25.137Z,99.90
2019-04-26T15:40:45.924Z,99.90
2019-04-26T15:42:03.152Z,99.90
2019-04-26T15:43:28.128Z,99.90
2019-04-26T15:44:36.797Z,99.90
2019-04-26T15:45:47.866Z,99.90
2019-04-26T15:47:05.255Z,99.90
2019-04-26T15:48:44.124Z,99.90